Beaver Bottom, Kentucky
Current Conditions -  °F | °C
As of 12:15 AM on Sunday 26 Oct 2014 (Local Time) from KPBX Reporting Station
Clear Clear  
Wind Chill: 58°   Ceiling: Unl
Heat Index: 58°   Visibility: 10mi
Dew Point: 54°   Wind: 3mph
Humidity: 84%   Direction: 220°SW
Pressure: 29.96"   Gusts: NA
Location:  37.3089°N, 82.3418°W
Report Text: KPBX 260415Z AUTO 22003KT 10SM CLR 15/12 A2996 RMK AO2 T01460120
Loading
Personal Weather Stations






























Interactive Weather Map New forecast layout! Learn more

10-Day Weather Forecast

Advertisements
Track Severe Weather on mobile